Latest Weather Observations for Dunalley

IDT60901

Issued at 10:51 pm EDT Wednesday 18 January 2017 (issued every 10 minutes, with the page automatically refreshed every 10 minutes)

About weather observations | Map of Hobart area stations | Latest observations for Hobart area | Other Formats
Station Details ID: 094254 Name: DUNALLEY (STROUD POINT) Lat: -42.90 Lon: 147.79 Height: 12.43 m
Data from the previous 72 hours. | See also: Recent months at Dunalley
Date/Time
EDT
Temp
°C
App
Temp
°C
Dew
Point
°C
Rel
Hum
%
Delta-T
°C
Wind Press
QNH
hPa
Press
MSL
hPa
Rain since
9am
mm
Dir  Spd
km/h
Gust
km/h
Spd
kts
Gust
kts
18/10:30pm 13.5 5.7 6.6 63 3.3 SW 37 46 20 25 1016.1 1016.1 0.0
18/10:00pm 13.6 5.3 7.6 67 2.9 SW 41 50 22 27 1016.0 1016.0 0.0
18/09:30pm 13.9 5.8 7.0 63 3.4 SW 39 46 21 25 1015.7 1015.7 0.0
18/09:00pm 14.2 6.4 6.8 61 3.6 SW 37 46 20 25 1015.4 1015.4 0.0
18/08:30pm 14.3 5.7 6.4 59 3.8 SW 41 50 22 27 1014.9 1014.9 0.0
18/08:00pm 14.8 6.3 6.9 59 3.9 SW 41 54 22 29 1014.3 1014.3 0.0
18/07:30pm 14.5 5.4 6.8 60 3.7 SSW 44 56 24 30 1014.0 1014.0 0.0
18/07:00pm 15.4 6.2 6.4 55 4.4 SW 44 57 24 31 1013.3 1013.3 0.0
18/06:30pm 16.6 8.5 7.0 53 4.8 SW 39 48 21 26 1012.8 1012.8 0.0
18/06:00pm 16.3 7.1 7.8 57 4.3 SSW 46 59 25 32 1012.2 1012.2 0.0
18/05:30pm 16.9 6.5 6.1 49 5.3 SW 50 63 27 34 1011.5 1011.5 0.0
18/05:00pm 16.8 5.6 6.0 49 5.3 SW 54 63 29 34 1011.1 1011.1 0.0
18/04:30pm 16.8 6.6 5.1 46 5.6 SW 48 61 26 33 1011.3 1011.3 0.0
18/04:00pm 16.7 6.2 5.6 48 5.4 SW 50 59 27 32 1011.2 1011.2 0.0
18/03:30pm 16.9 7.0 4.9 45 5.7 SW 46 56 25 30 1010.9 1010.9 0.0
18/03:00pm 16.5 6.9 6.1 50 5.1 WSW 46 57 25 31 1010.6 1010.6 0.0
18/02:30pm 17.2 6.4 6.1 48 5.4 SW 52 63 28 34 1009.6 1009.6 0.0
18/02:00pm 17.0 6.9 5.6 47 5.5 SW 48 65 26 35 1009.3 1009.3 0.0
18/01:30pm 17.2 5.7 6.1 48 5.4 SW 56 69 30 37 1009.3 1009.3 0.0
18/01:00pm 17.1 6.6 5.7 47 5.5 WSW 50 67 27 36 1008.8 1008.8 0.0
18/12:44pm 15.8 5.6 7.1 56 4.3 WSW 50 72 27 39 1008.7 1008.7 0.0
18/12:40pm 16.4 6.0 6.2 51 5.0 SW 50 70 27 38 1008.5 1008.5 0.0
18/12:30pm 16.9 7.0 6.7 51 5.0 SW 48 61 26 33 1008.5 1008.5 0.0
18/12:00pm 17.1 6.5 5.1 45 5.8 WSW 50 61 27 33 1008.2 1008.2 0.0
18/11:30am 15.8 4.8 4.8 48 5.2 WSW 52 69 28 37 1007.6 1007.6 0.0
18/11:00am 16.3 5.0 5.3 48 5.3 WSW 54 69 29 37 1007.0 1007.0 0.0
18/10:36am 15.8 5.6 7.1 56 4.3 WSW 50 69 27 37 1006.7 1006.7 0.0
18/10:30am 15.8 5.2 6.8 55 4.4 WSW 52 69 28 37 1006.5 1006.5 0.0
18/10:00am 15.0 5.6 7.3 60 3.8 WSW 46 57 25 31 1006.2 1006.2 0.0
18/09:30am 14.6 5.5 6.9 60 3.8 WSW 44 56 24 30 1005.8 1005.8 0.0
18/09:00am 15.2 5.7 6.5 56 4.2 W 46 57 25 31 1005.3 1005.3 0.0
18/08:30am 14.6 3.5 6.4 58 4.0 WSW 54 65 29 35 1004.5 1004.5 0.0
18/08:00am 15.1 6.5 6.4 56 4.2 WSW 41 50 22 27 1004.2 1004.2 0.0
18/07:30am 14.5 4.8 5.8 56 4.1 WSW 46 61 25 33 1003.8 1003.8 0.0
18/07:09am 14.3 4.2 5.9 57 4.0 W 48 69 26 37 1003.4 1003.4 0.0
18/07:00am 14.2 3.2 4.8 53 4.4 W 52 69 28 37 1003.2 1003.2 0.0
18/06:30am 14.4 3.7 6.5 59 3.8 W 52 67 28 36 1002.8 1002.8 0.0
18/06:15am 14.6 3.9 6.4 58 4.0 W 52 74 28 40 1002.5 1002.5 0.0
18/06:00am 15.0 4.2 7.5 61 3.7 WSW 54 69 29 37 1002.4 1002.4 0.0
18/05:30am 14.8 4.9 6.4 57 4.1 W 48 59 26 32 1001.8 1001.8 0.0
18/05:00am 15.2 5.6 8.0 62 3.6 WSW 48 59 26 32 1001.5 1001.5 0.0
18/04:30am 15.5 8.3 6.0 53 4.6 W 33 43 18 23 1000.8 1000.8 0.0
18/04:00am 15.3 6.8 5.0 50 4.9 W 39 50 21 27 1000.4 1000.4 0.0
18/03:30am 15.5 5.4 5.7 52 4.7 W 48 57 26 31 1000.5 1000.5 0.0
18/03:00am 16.2 6.1 5.8 50 5.0 W 48 59 26 32 1000.6 1000.6 0.0
18/02:30am 16.5 7.5 7.2 54 4.6 WSW 44 61 24 33 1000.7 1000.7 0.0
18/02:00am 16.8 8.7 10.6 67 3.3 SW 44 52 24 28 1001.0 1001.0 0.0
18/01:30am 18.1 11.8 11.0 63 3.8 WSW 35 41 19 22 1001.0 1001.0 0.0
18/01:00am 18.3 13.3 10.9 62 4.0 W 28 33 15 18 1001.2 1001.2 0.0
18/12:30am 17.2 15.4 10.8 66 3.4 NE 11 17 6 9 1001.2 1001.2 0.0
18/12:00am 16.4 16.5 12.8 79 2.0 NE 4 7 2 4 1001.7 1001.7 0.0
 
Date/Time
EDT
Temp
°C
App
Temp
°C
Dew
Point
°C
Rel
Hum
%
Delta-T
°C
Wind Press
QNH
hPa
Press
MSL
hPa
Rain since
9am
mm
Dir  Spd
km/h
Gust
km/h
Spd
kts
Gust
kts
17/11:30pm 16.5 16.7 13.0 80 1.9 NE 4 6 2 3 1002.2 1002.2 0.0
17/11:00pm 17.0 16.8 13.7 81 1.9 ENE 7 13 4 7 1002.1 1002.1 0.0
17/10:30pm 17.1 16.3 14.0 82 1.8 NE 11 15 6 8 1002.2 1002.2 0.0
17/10:00pm 17.2 16.0 14.1 82 1.8 NNE 13 15 7 8 1002.0 1002.0 0.0
17/09:30pm 17.4 15.5 14.3 82 1.8 NNE 17 20 9 11 1002.4 1002.4 0.0
17/09:00pm 17.6 15.8 14.5 82 1.8 NE 17 20 9 11 1002.3 1002.3 0.0
17/08:30pm 17.7 15.9 13.4 76 2.4 NE 15 19 8 10 1002.5 1002.5 0.0
17/08:00pm 17.9 15.1 13.2 74 2.7 NE 20 24 11 13 1002.4 1002.4 0.0
17/07:30pm 17.9 15.2 13.6 76 2.4 NE 20 24 11 13 1002.1 1002.1 0.0
17/07:00pm 17.9 15.7 13.2 74 2.7 NE 17 20 9 11 1002.2 1002.2 0.0
17/06:30pm 18.1 16.1 13.8 76 2.5 NE 17 20 9 11 1002.1 1002.1 0.0
17/06:00pm 18.5 16.1 13.8 74 2.7 NE 19 24 10 13 1002.3 1002.3 0.0
17/05:30pm 18.4 15.8 13.3 72 2.9 NE 19 22 10 12 1002.4 1002.4 0.0
17/05:00pm 18.8 16.8 13.9 73 2.8 ENE 17 22 9 12 1002.4 1002.4 0.0
17/04:30pm 18.8 16.1 13.6 72 3.0 ENE 20 28 11 15 1002.4 1002.4 0.0
17/04:00pm 19.1 16.5 13.9 72 3.0 NE 20 24 11 13 1002.7 1002.7 0.0
17/03:30pm 18.6 15.4 13.2 71 3.1 NE 22 28 12 15 1002.9 1002.9 0.0
17/03:00pm 18.8 15.2 13.0 69 3.3 NE 24 30 13 16 1002.6 1002.6 0.0
17/02:30pm 18.6 14.6 13.0 70 3.2 NE 26 30 14 16 1002.7 1002.7 0.0
17/02:00pm 20.9 18.8 12.3 58 4.9 NE 15 20 8 11 1002.6 1002.6 0.0
17/01:30pm 20.7 20.5 12.9 61 4.4 NNE 6 7 3 4 1003.0 1003.0 0.0
17/01:00pm 20.6 19.8 11.2 55 5.2 NNE 6 9 3 5 1003.2 1003.2 0.0
17/12:30pm 21.0 19.8 11.6 55 5.2 NNE 9 9 5 5 1003.4 1003.4 0.0
17/12:00pm 20.2 19.4 11.7 58 4.7 NNE 7 11 4 6 1003.5 1003.5 0.0
17/11:30am 20.8 19.1 11.2 54 5.3 NNE 11 13 6 7 1003.8 1003.8 0.0
17/11:00am 20.7 19.8 11.3 55 5.2 NNE 7 11 4 6 1004.2 1004.2 0.0
17/10:30am 19.0 18.1 11.3 61 4.2 NNE 7 11 4 6 1004.5 1004.5 0.0
17/10:00am 18.4 17.5 10.5 60 4.3 NNE 6 7 3 4 1004.8 1004.8 0.0
17/09:30am 17.3 16.7 9.0 58 4.3 NNE 2 6 1 3 1005.2 1005.2 0.0
17/09:00am 17.8 17.2 10.4 62 4.0 NNE 4 6 2 3 1005.5 1005.5 0.0
17/08:30am 17.5 16.9 10.4 63 3.8 NNE 4 6 2 3 1005.8 1005.8 0.0
17/08:00am 16.8 17.4 11.9 73 2.7 CALM 0 2 0 1 1005.9 1005.9 0.0
17/07:30am 15.7 16.4 12.3 80 1.9 CALM 0 0 0 0 1005.8 1005.8 0.0
17/07:00am 14.7 14.6 12.2 85 1.4 NNE 4 6 2 3 1005.1 1005.1 0.0
17/06:30am 13.2 12.4 11.1 87 1.1 NNE 6 6 3 3 1005.0 1005.0 0.0
17/06:00am 12.7 11.7 10.4 86 1.2 NNE 6 6 3 3 1004.4 1004.4 0.0
17/05:30am 12.8 11.6 10.3 85 1.3 NNE 7 9 4 5 1004.1 1004.1 0.0
17/05:00am 13.4 12.1 9.8 79 1.9 NNE 7 9 4 5 1003.9 1003.9 0.0
17/04:30am 13.2 11.3 10.4 83 1.5 NNE 11 13 6 7 1003.6 1003.6 0.0
17/04:00am 13.9 12.4 10.5 80 1.8 NNE 9 11 5 6 1003.7 1003.7 0.0
17/03:30am 13.2 11.9 10.0 81 1.6 NNE 7 9 4 5 1003.6 1003.6 0.0
17/03:00am 14.6 13.5 9.8 73 2.5 NNE 6 7 3 4 1003.8 1003.8 0.0
17/02:30am 15.2 15.3 10.2 72 2.6 CALM 0 4 0 2 1003.7 1003.7 0.0
17/02:00am 15.2 14.3 10.8 75 2.3 NNE 6 9 3 5 1004.2 1004.2 0.0
17/01:30am 14.3 15.1 12.7 90 0.9 CALM 0 6 0 3 1004.6 1004.6 0.0
17/01:00am 13.7 13.9 11.8 88 1.0 NNE 2 6 1 3 1004.7 1004.7 0.0
17/12:30am 14.6 14.2 12.5 87 1.1 NNE 6 6 3 3 1005.1 1005.1 0.0
17/12:00am 14.7 14.1 12.2 85 1.4 NNE 7 7 4 4 1005.6 1005.6 0.0
 
Date/Time
EDT
Temp
°C
App
Temp
°C
Dew
Point
°C
Rel
Hum
%
Delta-T
°C
Wind Press
QNH
hPa
Press
MSL
hPa
Rain since
9am
mm
Dir  Spd
km/h
Gust
km/h
Spd
kts
Gust
kts
16/11:30pm 15.6 16.1 12.9 84 1.5 NNE 2 4 1 2 1005.6 1005.6 0.0
16/11:00pm 15.2 15.7 12.7 85 1.4 NNE 2 6 1 3 1005.8 1005.8 0.0
16/10:30pm 14.8 14.3 12.5 86 1.3 NE 7 9 4 5 1005.9 1005.9 0.0
16/10:00pm 15.5 14.7 12.8 84 1.5 NE 9 11 5 6 1006.0 1006.0 0.0
16/09:30pm 16.0 15.6 13.1 83 1.6 NE 7 11 4 6 1006.1 1006.1 0.0
16/09:00pm 16.9 14.4 13.6 81 1.9 NE 19 22 10 12 1005.8 1005.8 0.0
16/08:30pm 17.4 14.3 13.5 78 2.2 NE 22 28 12 15 1005.7 1005.7 0.0
16/08:00pm 18.0 14.5 13.3 74 2.7 NE 24 32 13 17 1005.8 1005.8 0.0
16/07:30pm 18.7 14.4 13.3 71 3.1 ENE 28 35 15 19 1005.9 1005.9 0.0
16/07:00pm 18.9 13.9 13.3 70 3.2 ENE 32 39 17 21 1005.7 1005.7 0.0
16/06:30pm 19.9 15.2 13.1 65 3.9 ENE 30 39 16 21 1006.0 1006.0 0.0
16/06:00pm 20.4 15.5 12.6 61 4.4 NE 30 35 16 19 1006.3 1006.3 0.0
16/05:30pm 20.0 14.5 12.0 60 4.5 NE 32 39 17 21 1006.7 1006.7 0.0
16/05:00pm 20.5 15.3 11.7 57 4.9 NE 30 35 16 19 1007.1 1007.1 0.0
16/04:30pm 20.8 15.9 12.5 59 4.7 ENE 30 35 16 19 1007.5 1007.5 0.0
16/04:00pm 20.3 14.7 11.5 57 4.9 ENE 32 39 17 21 1007.9 1007.9 0.0
16/03:30pm 20.7 15.3 10.8 53 5.4 ENE 30 35 16 19 1008.2 1008.2 0.0
16/03:00pm 20.9 15.5 11.0 53 5.4 NE 30 39 16 21 1008.5 1008.5 0.0
16/02:30pm 21.1 16.4 10.6 51 5.7 NE 26 33 14 18 1008.7 1008.7 0.0
16/02:00pm 21.1 16.8 10.6 51 5.7 NE 24 32 13 17 1008.9 1008.9 0.0
16/01:30pm 21.2 17.7 10.1 49 6.0 NE 19 24 10 13 1009.3 1009.3 0.0
16/01:00pm 21.4 19.2 10.9 51 5.8 ENE 13 24 7 13 1009.5 1009.5 0.0
16/12:30pm 20.2 18.8 9.5 50 5.7 SW 7 13 4 7 1009.9 1009.9 0.0
16/12:00pm 20.5 17.3 10.0 51 5.7 SW 17 20 9 11 1010.0 1010.0 0.0
16/11:30am 19.2 16.2 9.1 52 5.3 SSW 15 22 8 12 1010.4 1010.4 0.0
16/11:00am 19.4 15.7 9.6 53 5.2 WSW 19 24 10 13 1010.7 1010.7 0.0
16/10:30am 19.2 15.0 8.2 49 5.7 WSW 20 26 11 14 1010.9 1010.9 0.0
16/10:00am 17.5 13.3 7.3 51 5.1 W 19 26 10 14 1011.0 1011.0 0.0
16/09:30am 17.5 12.7 7.3 51 5.1 WNW 22 28 12 15 1011.1 1011.1 0.0
16/09:00am 17.7 13.6 8.0 53 4.9 W 19 28 10 15 1011.0 1011.0 0.0
16/08:30am 16.8 12.3 6.9 52 4.9 WNW 20 30 11 16 1011.0 1011.0 0.0
16/08:00am 16.4 12.2 7.3 55 4.5 WNW 19 28 10 15 1010.9 1010.9 0.0
16/07:30am 15.8 10.6 7.1 56 4.3 W 24 32 13 17 1010.7 1010.7 0.0
16/07:00am 14.7 10.4 7.0 60 3.8 WNW 19 26 10 14 1010.4 1010.4 0.0
16/06:30am 13.7 9.4 6.8 63 3.3 WNW 19 24 10 13 1010.3 1010.3 0.0
16/06:00am 13.7 9.4 6.8 63 3.3 WNW 19 26 10 14 1010.2 1010.2 0.0
16/05:30am 13.4 9.8 6.7 64 3.2 WNW 15 30 8 16 1010.0 1010.0 0.0
16/05:00am 13.6 10.0 6.9 64 3.2 WNW 15 22 8 12 1009.9 1009.9 0.0
16/04:30am 13.4 9.0 6.7 64 3.2 WNW 19 24 10 13 1009.6 1009.6 0.0
16/04:00am 13.7 9.4 7.0 64 3.3 WNW 19 26 10 14 1009.6 1009.6 0.0
16/03:30am 13.5 9.5 6.8 64 3.2 WNW 17 26 9 14 1009.8 1009.8 0.0
16/03:00am 13.6 9.7 6.9 64 3.2 WNW 17 22 9 12 1010.1 1010.1 0.0
16/02:30am 13.9 9.6 7.2 64 3.3 WNW 19 26 10 14 1010.1 1010.1 0.0
16/02:00am 13.9 9.6 7.0 63 3.4 WNW 19 28 10 15 1010.4 1010.4 0.0
16/01:30am 14.0 10.1 7.1 63 3.4 WNW 17 24 9 13 1010.8 1010.8 0.0
16/01:00am 14.1 9.8 6.9 62 3.5 WNW 19 30 10 16 1011.1 1011.1 0.0
16/12:30am 14.5 9.3 7.1 61 3.6 WNW 24 39 13 21 1011.0 1011.0 0.0
16/12:00am 14.7 9.8 7.0 60 3.8 WNW 22 33 12 18 1011.4 1011.4 0.0
 
Date/Time
EDT
Temp
°C
App
Temp
°C
Dew
Point
°C
Rel
Hum
%
Delta-T
°C
Wind Press
QNH
hPa
Press
MSL
hPa
Rain since
9am
mm
Dir  Spd
km/h
Gust
km/h
Spd
kts
Gust
kts
15/11:30pm 14.9 9.8 7.5 61 3.7 WNW 24 35 13 19 1011.4 1011.4 0.0
15/11:00pm 14.8 11.7 7.4 61 3.7 WNW 13 20 7 11 1011.7 1011.7 0.0

Latest Capital City Observations: Canberra | Sydney | Melbourne | Brisbane | Adelaide | Perth | Hobart | Darwin

Other Formats:

Comma delimited format used in spreadsheet applications
http://www.bom.gov.au/fwo/IDT60901/IDT60901.94951.axf

JavaScript Object Notation format (JSON) in row-major order
http://www.bom.gov.au/fwo/IDT60901/IDT60901.94951.json